sensor_id;sensor_type;location;lat;lon;timestamp;P1;durP1;ratioP1;P2;durP2;ratioP2
75584;SDS011;64162;53.508;10.476;2022-11-04T00:09:39;6.35;;;2.30;;
75584;SDS011;64162;53.508;10.476;2022-11-04T00:17:13;7.85;;;2.33;;
75584;SDS011;64162;53.508;10.476;2022-11-04T00:49:03;7.78;;;3.85;;
75584;SDS011;64162;53.508;10.476;2022-11-04T00:51:32;9.43;;;2.90;;
75584;SDS011;64162;53.508;10.476;2022-11-04T00:53:58;10.70;;;2.90;;
75584;SDS011;64162;53.508;10.476;2022-11-04T00:56:26;8.75;;;2.83;;
75584;SDS011;64162;53.508;10.476;2022-11-04T00:58:54;9.45;;;3.50;;
75584;SDS011;64162;53.508;10.476;2022-11-04T01:02:10;11.57;;;3.28;;
75584;SDS011;64162;53.508;10.476;2022-11-04T01:07:24;11.85;;;3.00;;
75584;SDS011;64162;53.508;10.476;2022-11-04T01:09:50;11.35;;;3.13;;
75584;SDS011;64162;53.508;10.476;2022-11-04T01:12:15;8.88;;;2.67;;
75584;SDS011;64162;53.508;10.476;2022-11-04T01:14:41;7.95;;;2.83;;
75584;SDS011;64162;53.508;10.476;2022-11-04T01:17:07;6.43;;;3.47;;
75584;SDS011;64162;53.508;10.476;2022-11-04T01:19:32;12.52;;;3.28;;
75584;SDS011;64162;53.508;10.476;2022-11-04T01:21:58;8.18;;;3.03;;
75584;SDS011;64162;53.508;10.476;2022-11-04T01:24:23;12.25;;;3.95;;
75584;SDS011;64162;53.508;10.476;2022-11-04T01:38:38;14.98;;;3.47;;
75584;SDS011;64162;53.508;10.476;2022-11-04T01:41:03;11.73;;;3.95;;
75584;SDS011;64162;53.508;10.476;2022-11-04T01:46:39;11.95;;;3.17;;
75584;SDS011;64162;53.508;10.476;2022-11-04T01:49:36;5.80;;;2.83;;
75584;SDS011;64162;53.508;10.476;2022-11-04T01:59:40;8.52;;;2.88;;
75584;SDS011;64162;53.508;10.476;2022-11-04T03:01:39;13.95;;;3.25;;
75584;SDS011;64162;53.508;10.476;2022-11-04T03:35:58;17.27;;;6.22;;
75584;SDS011;64162;53.508;10.476;2022-11-04T03:38:24;21.48;;;5.05;;
75584;SDS011;64162;53.508;10.476;2022-11-04T03:40:57;23.20;;;6.57;;
75584;SDS011;64162;53.508;10.476;2022-11-04T03:43:25;18.23;;;7.53;;
75584;SDS011;64162;53.508;10.476;2022-11-04T03:45:53;21.58;;;5.25;;
75584;SDS011;64162;53.508;10.476;2022-11-04T03:51:29;24.08;;;8.05;;
75584;SDS011;64162;53.508;10.476;2022-11-04T03:53:54;27.50;;;7.57;;
75584;SDS011;64162;53.508;10.476;2022-11-04T03:56:27;22.40;;;7.65;;
75584;SDS011;64162;53.508;10.476;2022-11-04T03:59:12;29.45;;;8.25;;
75584;SDS011;64162;53.508;10.476;2022-11-04T04:02:06;26.73;;;9.10;;
75584;SDS011;64162;53.508;10.476;2022-11-04T04:04:37;24.75;;;7.55;;
75584;SDS011;64162;53.508;10.476;2022-11-04T04:09:48;27.42;;;9.40;;
75584;SDS011;64162;53.508;10.476;2022-11-04T04:12:30;36.45;;;9.38;;
75584;SDS011;64162;53.508;10.476;2022-11-04T04:15:05;27.92;;;9.93;;
75584;SDS011;64162;53.508;10.476;2022-11-04T04:17:38;30.25;;;8.57;;
75584;SDS011;64162;53.508;10.476;2022-11-04T04:20:17;30.40;;;10.40;;
75584;SDS011;64162;53.508;10.476;2022-11-04T04:22:46;26.85;;;8.38;;
75584;SDS011;64162;53.508;10.476;2022-11-04T04:25:15;24.15;;;7.97;;
75584;SDS011;64162;53.508;10.476;2022-11-04T04:28:01;28.38;;;8.45;;
75584;SDS011;64162;53.508;10.476;2022-11-04T04:30:28;33.63;;;9.80;;
75584;SDS011;64162;53.508;10.476;2022-11-04T04:32:55;34.10;;;10.10;;
75584;SDS011;64162;53.508;10.476;2022-11-04T04:35:31;31.70;;;9.57;;
75584;SDS011;64162;53.508;10.476;2022-11-04T04:41:07;30.55;;;8.00;;
75584;SDS011;64162;53.508;10.476;2022-11-04T04:43:55;32.63;;;9.45;;
75584;SDS011;64162;53.508;10.476;2022-11-04T04:46:40;27.67;;;8.95;;
75584;SDS011;64162;53.508;10.476;2022-11-04T04:51:34;29.05;;;8.45;;
75584;SDS011;64162;53.508;10.476;2022-11-04T04:54:03;29.48;;;8.40;;
75584;SDS011;64162;53.508;10.476;2022-11-04T04:56:28;32.65;;;9.38;;
75584;SDS011;64162;53.508;10.476;2022-11-04T04:58:54;30.52;;;9.52;;
75584;SDS011;64162;53.508;10.476;2022-11-04T05:01:19;25.45;;;10.48;;
75584;SDS011;64162;53.508;10.476;2022-11-04T05:03:44;31.58;;;8.80;;
75584;SDS011;64162;53.508;10.476;2022-11-04T05:06:10;40.53;;;10.50;;
75584;SDS011;64162;53.508;10.476;2022-11-04T05:08:35;28.77;;;8.60;;
75584;SDS011;64162;53.508;10.476;2022-11-04T05:11:00;30.42;;;10.13;;
75584;SDS011;64162;53.508;10.476;2022-11-04T05:13:26;25.65;;;8.40;;
75584;SDS011;64162;53.508;10.476;2022-11-04T05:15:52;32.13;;;9.98;;
75584;SDS011;64162;53.508;10.476;2022-11-04T05:18:18;26.98;;;9.05;;
75584;SDS011;64162;53.508;10.476;2022-11-04T05:20:44;29.15;;;8.68;;
75584;SDS011;64162;53.508;10.476;2022-11-04T05:23:09;28.88;;;8.73;;
75584;SDS011;64162;53.508;10.476;2022-11-04T05:25:36;33.35;;;9.00;;
75584;SDS011;64162;53.508;10.476;2022-11-04T05:28:05;27.98;;;7.70;;
75584;SDS011;64162;53.508;10.476;2022-11-04T05:30:31;28.77;;;7.97;;
75584;SDS011;64162;53.508;10.476;2022-11-04T05:32:57;31.70;;;8.75;;
75584;SDS011;64162;53.508;10.476;2022-11-04T05:35:23;28.40;;;8.75;;
75584;SDS011;64162;53.508;10.476;2022-11-04T05:37:48;21.52;;;6.90;;
75584;SDS011;64162;53.508;10.476;2022-11-04T05:40:13;20.20;;;7.72;;
75584;SDS011;64162;53.508;10.476;2022-11-04T05:42:39;28.35;;;8.38;;
75584;SDS011;64162;53.508;10.476;2022-11-04T05:45:04;24.52;;;7.53;;
75584;SDS011;64162;53.508;10.476;2022-11-04T05:47:30;25.02;;;7.68;;
75584;SDS011;64162;53.508;10.476;2022-11-04T05:49:56;22.15;;;7.63;;
75584;SDS011;64162;53.508;10.476;2022-11-04T05:52:21;21.35;;;7.18;;
75584;SDS011;64162;53.508;10.476;2022-11-04T05:54:46;37.20;;;8.88;;
75584;SDS011;64162;53.508;10.476;2022-11-04T05:57:12;23.63;;;7.30;;
75584;SDS011;64162;53.508;10.476;2022-11-04T05:59:37;25.83;;;8.45;;
75584;SDS011;64162;53.508;10.476;2022-11-04T06:02:03;19.02;;;6.47;;
75584;SDS011;64162;53.508;10.476;2022-11-04T06:04:28;22.48;;;7.65;;
75584;SDS011;64162;53.508;10.476;2022-11-04T06:06:53;19.55;;;6.78;;
75584;SDS011;64162;53.508;10.476;2022-11-04T06:09:19;24.20;;;7.07;;
75584;SDS011;64162;53.508;10.476;2022-11-04T06:11:44;25.52;;;7.60;;
75584;SDS011;64162;53.508;10.476;2022-11-04T06:14:10;21.55;;;6.68;;
75584;SDS011;64162;53.508;10.476;2022-11-04T06:16:35;24.88;;;6.38;;
75584;SDS011;64162;53.508;10.476;2022-11-04T06:19:01;22.23;;;7.22;;
75584;SDS011;64162;53.508;10.476;2022-11-04T06:21:27;24.58;;;7.25;;
75584;SDS011;64162;53.508;10.476;2022-11-04T06:23:55;24.02;;;7.28;;
75584;SDS011;64162;53.508;10.476;2022-11-04T06:26:21;21.38;;;5.88;;
75584;SDS011;64162;53.508;10.476;2022-11-04T06:28:48;18.58;;;5.57;;
75584;SDS011;64162;53.508;10.476;2022-11-04T06:31:14;24.90;;;6.75;;
75584;SDS011;64162;53.508;10.476;2022-11-04T06:33:40;23.00;;;5.80;;
75584;SDS011;64162;53.508;10.476;2022-11-04T06:36:06;21.02;;;6.90;;
75584;SDS011;64162;53.508;10.476;2022-11-04T06:38:33;21.85;;;7.15;;
75584;SDS011;64162;53.508;10.476;2022-11-04T06:40:59;17.48;;;5.18;;
75584;SDS011;64162;53.508;10.476;2022-11-04T06:43:25;17.80;;;5.47;;
75584;SDS011;64162;53.508;10.476;2022-11-04T06:45:53;23.10;;;7.43;;
75584;SDS011;64162;53.508;10.476;2022-11-04T06:48:20;21.92;;;7.97;;
75584;SDS011;64162;53.508;10.476;2022-11-04T06:50:45;21.80;;;6.78;;
75584;SDS011;64162;53.508;10.476;2022-11-04T06:53:11;22.85;;;5.53;;
75584;SDS011;64162;53.508;10.476;2022-11-04T06:55:36;21.10;;;6.38;;
75584;SDS011;64162;53.508;10.476;2022-11-04T06:58:01;19.05;;;6.38;;
75584;SDS011;64162;53.508;10.476;2022-11-04T07:00:27;19.88;;;7.00;;
75584;SDS011;64162;53.508;10.476;2022-11-04T07:02:52;18.23;;;6.30;;
75584;SDS011;64162;53.508;10.476;2022-11-04T07:05:18;17.48;;;5.50;;
75584;SDS011;64162;53.508;10.476;2022-11-04T07:07:43;17.23;;;5.47;;
75584;SDS011;64162;53.508;10.476;2022-11-04T07:10:08;18.05;;;5.15;;
75584;SDS011;64162;53.508;10.476;2022-11-04T07:12:34;14.38;;;4.68;;
75584;SDS011;64162;53.508;10.476;2022-11-04T07:14:59;13.48;;;4.88;;
75584;SDS011;64162;53.508;10.476;2022-11-04T07:17:25;10.85;;;4.75;;
75584;SDS011;64162;53.508;10.476;2022-11-04T07:19:50;11.85;;;4.32;;
75584;SDS011;64162;53.508;10.476;2022-11-04T07:22:15;10.60;;;4.28;;
75584;SDS011;64162;53.508;10.476;2022-11-04T07:24:41;11.50;;;4.05;;
75584;SDS011;64162;53.508;10.476;2022-11-04T07:27:07;10.80;;;4.35;;
75584;SDS011;64162;53.508;10.476;2022-11-04T07:29:33;10.68;;;4.05;;
75584;SDS011;64162;53.508;10.476;2022-11-04T07:31:58;8.52;;;3.70;;
75584;SDS011;64162;53.508;10.476;2022-11-04T07:34:23;9.82;;;3.72;;
75584;SDS011;64162;53.508;10.476;2022-11-04T07:36:49;10.02;;;5.03;;
75584;SDS011;64162;53.508;10.476;2022-11-04T07:39:14;8.15;;;3.80;;
75584;SDS011;64162;53.508;10.476;2022-11-04T07:41:40;11.93;;;4.03;;
75584;SDS011;64162;53.508;10.476;2022-11-04T07:44:05;10.95;;;3.97;;
75584;SDS011;64162;53.508;10.476;2022-11-04T07:46:31;9.32;;;5.05;;
75584;SDS011;64162;53.508;10.476;2022-11-04T07:48:57;8.77;;;4.88;;
75584;SDS011;64162;53.508;10.476;2022-11-04T07:51:23;8.65;;;3.15;;
75584;SDS011;64162;53.508;10.476;2022-11-04T07:53:49;7.43;;;3.63;;
75584;SDS011;64162;53.508;10.476;2022-11-04T07:56:14;9.50;;;3.00;;
75584;SDS011;64162;53.508;10.476;2022-11-04T07:58:40;7.65;;;4.50;;
75584;SDS011;64162;53.508;10.476;2022-11-04T08:01:08;8.25;;;4.30;;
75584;SDS011;64162;53.508;10.476;2022-11-04T08:03:36;7.65;;;3.83;;
75584;SDS011;64162;53.508;10.476;2022-11-04T08:06:02;6.35;;;3.50;;
75584;SDS011;64162;53.508;10.476;2022-11-04T08:08:29;6.97;;;3.28;;
75584;SDS011;64162;53.508;10.476;2022-11-04T08:10:55;7.18;;;3.95;;
75584;SDS011;64162;53.508;10.476;2022-11-04T08:13:26;6.68;;;3.65;;
75584;SDS011;64162;53.508;10.476;2022-11-04T08:15:53;4.97;;;2.28;;
75584;SDS011;64162;53.508;10.476;2022-11-04T08:18:18;7.53;;;3.67;;
75584;SDS011;64162;53.508;10.476;2022-11-04T08:20:47;6.80;;;2.97;;
75584;SDS011;64162;53.508;10.476;2022-11-04T08:23:21;7.13;;;2.92;;
75584;SDS011;64162;53.508;10.476;2022-11-04T08:25:49;6.35;;;3.38;;
75584;SDS011;64162;53.508;10.476;2022-11-04T08:28:15;6.50;;;3.33;;
75584;SDS011;64162;53.508;10.476;2022-11-04T08:30:56;6.65;;;3.75;;
75584;SDS011;64162;53.508;10.476;2022-11-04T08:35:49;10.15;;;3.78;;
75584;SDS011;64162;53.508;10.476;2022-11-04T08:38:15;7.43;;;3.85;;
75584;SDS011;64162;53.508;10.476;2022-11-04T08:40:40;7.22;;;4.03;;
75584;SDS011;64162;53.508;10.476;2022-11-04T08:43:06;6.30;;;3.33;;
75584;SDS011;64162;53.508;10.476;2022-11-04T08:45:32;5.45;;;3.08;;
75584;SDS011;64162;53.508;10.476;2022-11-04T08:47:58;6.40;;;3.15;;
75584;SDS011;64162;53.508;10.476;2022-11-04T08:50:23;5.75;;;3.55;;
75584;SDS011;64162;53.508;10.476;2022-11-04T08:52:52;6.40;;;3.67;;
75584;SDS011;64162;53.508;10.476;2022-11-04T08:55:18;6.05;;;2.60;;
75584;SDS011;64162;53.508;10.476;2022-11-04T08:57:43;5.85;;;3.15;;
75584;SDS011;64162;53.508;10.476;2022-11-04T09:00:09;7.22;;;3.45;;
75584;SDS011;64162;53.508;10.476;2022-11-04T09:02:35;5.88;;;2.55;;
75584;SDS011;64162;53.508;10.476;2022-11-04T09:05:01;5.95;;;3.03;;
75584;SDS011;64162;53.508;10.476;2022-11-04T09:07:26;6.53;;;3.08;;
75584;SDS011;64162;53.508;10.476;2022-11-04T09:09:51;6.68;;;2.35;;
75584;SDS011;64162;53.508;10.476;2022-11-04T09:12:17;4.20;;;2.58;;
75584;SDS011;64162;53.508;10.476;2022-11-04T09:14:42;5.00;;;2.50;;
75584;SDS011;64162;53.508;10.476;2022-11-04T09:17:07;4.80;;;3.30;;
75584;SDS011;64162;53.508;10.476;2022-11-04T09:19:33;4.20;;;2.78;;
75584;SDS011;64162;53.508;10.476;2022-11-04T09:21:58;5.65;;;1.88;;
75584;SDS011;64162;53.508;10.476;2022-11-04T09:24:24;5.13;;;3.47;;
75584;SDS011;64162;53.508;10.476;2022-11-04T09:26:49;6.95;;;2.97;;
75584;SDS011;64162;53.508;10.476;2022-11-04T09:29:14;4.10;;;2.42;;
75584;SDS011;64162;53.508;10.476;2022-11-04T09:31:40;5.07;;;2.55;;
75584;SDS011;64162;53.508;10.476;2022-11-04T09:34:07;5.90;;;3.30;;
75584;SDS011;64162;53.508;10.476;2022-11-04T09:36:32;4.55;;;3.03;;
75584;SDS011;64162;53.508;10.476;2022-11-04T09:38:58;5.70;;;3.63;;
75584;SDS011;64162;53.508;10.476;2022-11-04T09:41:33;7.63;;;3.83;;
75584;SDS011;64162;53.508;10.476;2022-11-04T09:46:57;5.30;;;2.33;;
75584;SDS011;64162;53.508;10.476;2022-11-04T09:49:26;5.85;;;2.35;;
75584;SDS011;64162;53.508;10.476;2022-11-04T09:51:54;6.53;;;3.42;;
75584;SDS011;64162;53.508;10.476;2022-11-04T09:54:28;5.57;;;4.28;;
75584;SDS011;64162;53.508;10.476;2022-11-04T09:57:04;7.32;;;4.30;;
75584;SDS011;64162;53.508;10.476;2022-11-04T09:59:40;2.50;;;1.33;;
75584;SDS011;64162;53.508;10.476;2022-11-04T10:10:10;3.60;;;1.60;;
75584;SDS011;64162;53.508;10.476;2022-11-04T10:15:54;2.63;;;2.33;;
75584;SDS011;64162;53.508;10.476;2022-11-04T10:18:26;4.57;;;2.35;;
75584;SDS011;64162;53.508;10.476;2022-11-04T10:23:44;4.07;;;2.38;;
75584;SDS011;64162;53.508;10.476;2022-11-04T10:26:15;3.63;;;1.05;;
75584;SDS011;64162;53.508;10.476;2022-11-04T10:28:57;2.15;;;1.40;;
75584;SDS011;64162;53.508;10.476;2022-11-04T10:31:27;2.20;;;1.23;;
75584;SDS011;64162;53.508;10.476;2022-11-04T10:34:01;1.35;;;0.93;;
75584;SDS011;64162;53.508;10.476;2022-11-04T10:36:31;3.10;;;0.85;;
75584;SDS011;64162;53.508;10.476;2022-11-04T10:38:58;1.70;;;1.23;;
75584;SDS011;64162;53.508;10.476;2022-11-04T10:41:30;2.00;;;1.30;;
75584;SDS011;64162;53.508;10.476;2022-11-04T10:44:00;0.93;;;0.68;;
75584;SDS011;64162;53.508;10.476;2022-11-04T10:52:06;4.32;;;1.35;;
75584;SDS011;64162;53.508;10.476;2022-11-04T10:54:41;2.78;;;1.48;;
75584;SDS011;64162;53.508;10.476;2022-11-04T10:57:09;1.58;;;0.73;;
75584;SDS011;64162;53.508;10.476;2022-11-04T10:59:47;3.25;;;2.60;;
75584;SDS011;64162;53.508;10.476;2022-11-04T11:02:16;2.10;;;1.63;;
75584;SDS011;64162;53.508;10.476;2022-11-04T11:04:42;3.17;;;1.17;;
75584;SDS011;64162;53.508;10.476;2022-11-04T11:07:12;1.33;;;0.75;;
75584;SDS011;64162;53.508;10.476;2022-11-04T11:12:22;2.67;;;1.45;;
75584;SDS011;64162;53.508;10.476;2022-11-04T11:15:16;2.67;;;1.50;;
75584;SDS011;64162;53.508;10.476;2022-11-04T11:17:49;8.20;;;3.33;;
75584;SDS011;64162;53.508;10.476;2022-11-04T11:20:22;1.98;;;1.13;;
75584;SDS011;64162;53.508;10.476;2022-11-04T11:22:53;1.88;;;0.90;;
75584;SDS011;64162;53.508;10.476;2022-11-04T11:25:25;2.55;;;1.88;;
75584;SDS011;64162;53.508;10.476;2022-11-04T11:30:28;1.25;;;0.60;;
75584;SDS011;64162;53.508;10.476;2022-11-04T11:33:02;3.47;;;1.05;;
75584;SDS011;64162;53.508;10.476;2022-11-04T11:35:39;1.40;;;0.73;;
75584;SDS011;64162;53.508;10.476;2022-11-04T11:38:14;1.85;;;0.80;;
75584;SDS011;64162;53.508;10.476;2022-11-04T11:40:43;2.28;;;1.15;;
75584;SDS011;64162;53.508;10.476;2022-11-04T11:43:26;2.97;;;1.63;;
75584;SDS011;64162;53.508;10.476;2022-11-04T11:45:54;2.17;;;1.50;;
75584;SDS011;64162;53.508;10.476;2022-11-04T11:48:31;3.78;;;2.05;;
75584;SDS011;64162;53.508;10.476;2022-11-04T11:51:03;6.35;;;2.22;;
75584;SDS011;64162;53.508;10.476;2022-11-04T11:53:29;6.43;;;2.30;;
75584;SDS011;64162;53.508;10.476;2022-11-04T11:56:02;3.03;;;1.73;;
75584;SDS011;64162;53.508;10.476;2022-11-04T11:58:45;2.67;;;1.67;;
75584;SDS011;64162;53.508;10.476;2022-11-04T12:01:35;7.00;;;5.55;;
75584;SDS011;64162;53.508;10.476;2022-11-04T12:04:07;5.05;;;3.58;;
75584;SDS011;64162;53.508;10.476;2022-11-04T12:06:36;6.05;;;4.13;;
75584;SDS011;64162;53.508;10.476;2022-11-04T12:09:17;5.03;;;4.22;;
75584;SDS011;64162;53.508;10.476;2022-11-04T12:11:51;4.38;;;3.42;;
75584;SDS011;64162;53.508;10.476;2022-11-04T12:17:23;8.55;;;5.30;;
75584;SDS011;64162;53.508;10.476;2022-11-04T12:20:19;9.02;;;6.00;;
75584;SDS011;64162;53.508;10.476;2022-11-04T12:26:12;2.33;;;1.38;;
75584;SDS011;64162;53.508;10.476;2022-11-04T12:28:51;2.65;;;1.25;;
75584;SDS011;64162;53.508;10.476;2022-11-04T12:37:30;3.50;;;1.48;;
75584;SDS011;64162;53.508;10.476;2022-11-04T12:51:25;1.80;;;1.52;;
75584;SDS011;64162;53.508;10.476;2022-11-04T12:56:37;2.88;;;0.95;;
75584;SDS011;64162;53.508;10.476;2022-11-04T13:01:49;4.50;;;2.08;;
75584;SDS011;64162;53.508;10.476;2022-11-04T13:04:17;5.47;;;4.97;;
75584;SDS011;64162;53.508;10.476;2022-11-04T13:06:53;3.33;;;2.08;;
75584;SDS011;64162;53.508;10.476;2022-11-04T13:13:09;1.08;;;0.77;;
75584;SDS011;64162;53.508;10.476;2022-11-04T13:15:48;1.63;;;0.85;;
75584;SDS011;64162;53.508;10.476;2022-11-04T13:18:25;3.00;;;1.15;;
75584;SDS011;64162;53.508;10.476;2022-11-04T13:23:51;2.88;;;0.85;;
75584;SDS011;64162;53.508;10.476;2022-11-04T13:26:24;1.08;;;0.52;;
75584;SDS011;64162;53.508;10.476;2022-11-04T13:32:00;2.10;;;0.65;;
75584;SDS011;64162;53.508;10.476;2022-11-04T13:34:53;4.40;;;0.45;;
75584;SDS011;64162;53.508;10.476;2022-11-04T13:45:51;2.65;;;1.33;;
75584;SDS011;64162;53.508;10.476;2022-11-04T13:48:24;3.38;;;0.93;;
75584;SDS011;64162;53.508;10.476;2022-11-04T13:51:01;2.97;;;0.40;;
75584;SDS011;64162;53.508;10.476;2022-11-04T13:59:05;2.17;;;1.08;;
75584;SDS011;64162;53.508;10.476;2022-11-04T14:01:43;1.90;;;1.15;;
75584;SDS011;64162;53.508;10.476;2022-11-04T14:14:51;0.75;;;0.45;;
75584;SDS011;64162;53.508;10.476;2022-11-04T14:22:47;1.02;;;0.57;;
75584;SDS011;64162;53.508;10.476;2022-11-04T14:28:22;3.42;;;0.52;;
75584;SDS011;64162;53.508;10.476;2022-11-04T14:44:27;4.32;;;1.27;;
75584;SDS011;64162;53.508;10.476;2022-11-04T14:46:56;5.85;;;0.93;;
75584;SDS011;64162;53.508;10.476;2022-11-04T14:57:36;1.98;;;0.40;;
75584;SDS011;64162;53.508;10.476;2022-11-04T15:04:26;3.42;;;0.47;;
75584;SDS011;64162;53.508;10.476;2022-11-04T15:06:54;2.97;;;1.20;;
75584;SDS011;64162;53.508;10.476;2022-11-04T15:09:30;2.03;;;0.55;;
75584;SDS011;64162;53.508;10.476;2022-11-04T15:12:12;4.22;;;1.48;;
75584;SDS011;64162;53.508;10.476;2022-11-04T15:14:57;5.68;;;0.75;;
75584;SDS011;64162;53.508;10.476;2022-11-04T15:17:25;3.45;;;1.90;;
75584;SDS011;64162;53.508;10.476;2022-11-04T15:19:53;5.15;;;1.67;;
75584;SDS011;64162;53.508;10.476;2022-11-04T15:22:20;11.20;;;6.03;;
75584;SDS011;64162;53.508;10.476;2022-11-04T15:24:47;13.13;;;5.55;;
75584;SDS011;64162;53.508;10.476;2022-11-04T15:27:15;8.15;;;3.67;;
75584;SDS011;64162;53.508;10.476;2022-11-04T15:29:55;4.18;;;1.88;;
75584;SDS011;64162;53.508;10.476;2022-11-04T15:32:24;3.88;;;1.60;;
75584;SDS011;64162;53.508;10.476;2022-11-04T15:34:50;3.35;;;1.05;;
75584;SDS011;64162;53.508;10.476;2022-11-04T15:37:17;8.00;;;1.88;;
75584;SDS011;64162;53.508;10.476;2022-11-04T15:39:45;4.28;;;0.93;;
75584;SDS011;64162;53.508;10.476;2022-11-04T15:42:16;5.75;;;2.35;;
75584;SDS011;64162;53.508;10.476;2022-11-04T15:47:46;2.20;;;1.02;;
75584;SDS011;64162;53.508;10.476;2022-11-04T15:50:21;3.58;;;1.10;;
75584;SDS011;64162;53.508;10.476;2022-11-04T15:52:49;3.20;;;0.85;;
75584;SDS011;64162;53.508;10.476;2022-11-04T15:55:25;3.60;;;0.73;;
75584;SDS011;64162;53.508;10.476;2022-11-04T16:00:22;4.53;;;0.85;;
75584;SDS011;64162;53.508;10.476;2022-11-04T16:02:50;19.02;;;7.13;;
75584;SDS011;64162;53.508;10.476;2022-11-04T16:07:44;7.00;;;2.27;;
75584;SDS011;64162;53.508;10.476;2022-11-04T16:18:22;3.33;;;1.87;;
75584;SDS011;64162;53.508;10.476;2022-11-04T16:20:53;6.43;;;2.53;;
75584;SDS011;64162;53.508;10.476;2022-11-04T16:23:20;5.45;;;2.47;;
75584;SDS011;64162;53.508;10.476;2022-11-04T16:26:02;9.27;;;3.35;;
75584;SDS011;64162;53.508;10.476;2022-11-04T16:28:32;4.10;;;1.90;;
75584;SDS011;64162;53.508;10.476;2022-11-04T16:31:01;6.72;;;2.65;;
75584;SDS011;64162;53.508;10.476;2022-11-04T16:33:28;8.27;;;2.95;;
75584;SDS011;64162;53.508;10.476;2022-11-04T16:35:54;6.60;;;3.20;;
75584;SDS011;64162;53.508;10.476;2022-11-04T16:38:19;8.95;;;4.70;;
75584;SDS011;64162;53.508;10.476;2022-11-04T16:40:45;9.73;;;4.53;;
75584;SDS011;64162;53.508;10.476;2022-11-04T16:43:13;7.40;;;3.03;;
75584;SDS011;64162;53.508;10.476;2022-11-04T16:48:08;9.38;;;2.53;;
75584;SDS011;64162;53.508;10.476;2022-11-04T16:50:40;9.23;;;2.97;;
75584;SDS011;64162;53.508;10.476;2022-11-04T16:53:05;13.30;;;4.20;;
75584;SDS011;64162;53.508;10.476;2022-11-04T16:55:30;12.38;;;5.82;;
75584;SDS011;64162;53.508;10.476;2022-11-04T16:58:00;10.88;;;4.07;;
75584;SDS011;64162;53.508;10.476;2022-11-04T17:00:27;13.93;;;3.67;;
75584;SDS011;64162;53.508;10.476;2022-11-04T17:02:53;12.38;;;4.00;;
75584;SDS011;64162;53.508;10.476;2022-11-04T17:05:19;10.27;;;2.97;;
75584;SDS011;64162;53.508;10.476;2022-11-04T17:07:44;7.78;;;2.08;;
75584;SDS011;64162;53.508;10.476;2022-11-04T17:10:11;9.60;;;3.08;;
75584;SDS011;64162;53.508;10.476;2022-11-04T17:12:42;8.50;;;2.72;;
75584;SDS011;64162;53.508;10.476;2022-11-04T17:15:08;5.88;;;2.97;;
75584;SDS011;64162;53.508;10.476;2022-11-04T17:17:34;7.18;;;2.90;;
75584;SDS011;64162;53.508;10.476;2022-11-04T17:19:59;9.30;;;3.53;;
75584;SDS011;64162;53.508;10.476;2022-11-04T17:22:25;7.65;;;2.22;;
75584;SDS011;64162;53.508;10.476;2022-11-04T17:24:50;7.45;;;3.03;;
75584;SDS011;64162;53.508;10.476;2022-11-04T17:27:16;11.57;;;5.45;;
75584;SDS011;64162;53.508;10.476;2022-11-04T17:29:41;9.23;;;4.18;;
75584;SDS011;64162;53.508;10.476;2022-11-04T17:32:07;14.05;;;5.32;;
75584;SDS011;64162;53.508;10.476;2022-11-04T17:34:33;11.05;;;4.22;;
75584;SDS011;64162;53.508;10.476;2022-11-04T17:36:58;12.60;;;3.65;;
75584;SDS011;64162;53.508;10.476;2022-11-04T17:39:24;10.55;;;4.97;;
75584;SDS011;64162;53.508;10.476;2022-11-04T17:41:50;20.70;;;6.15;;
75584;SDS011;64162;53.508;10.476;2022-11-04T17:44:34;13.60;;;4.25;;
75584;SDS011;64162;53.508;10.476;2022-11-04T17:46:59;12.23;;;4.70;;
75584;SDS011;64162;53.508;10.476;2022-11-04T17:49:25;12.07;;;4.68;;
75584;SDS011;64162;53.508;10.476;2022-11-04T17:51:55;12.80;;;4.60;;
75584;SDS011;64162;53.508;10.476;2022-11-04T17:54:22;12.50;;;6.45;;
75584;SDS011;64162;53.508;10.476;2022-11-04T17:56:49;13.40;;;5.38;;
75584;SDS011;64162;53.508;10.476;2022-11-04T17:59:14;13.10;;;7.07;;
75584;SDS011;64162;53.508;10.476;2022-11-04T18:01:41;16.60;;;7.65;;
75584;SDS011;64162;53.508;10.476;2022-11-04T18:04:12;19.23;;;6.95;;
75584;SDS011;64162;53.508;10.476;2022-11-04T18:06:39;16.85;;;9.00;;
75584;SDS011;64162;53.508;10.476;2022-11-04T18:09:04;18.33;;;9.40;;
75584;SDS011;64162;53.508;10.476;2022-11-04T18:11:30;25.75;;;11.18;;
75584;SDS011;64162;53.508;10.476;2022-11-04T18:14:14;25.38;;;11.20;;
75584;SDS011;64162;53.508;10.476;2022-11-04T18:16:41;23.70;;;10.43;;
75584;SDS011;64162;53.508;10.476;2022-11-04T18:19:08;16.85;;;8.02;;
75584;SDS011;64162;53.508;10.476;2022-11-04T18:21:33;14.75;;;7.40;;
75584;SDS011;64162;53.508;10.476;2022-11-04T18:23:59;19.48;;;7.72;;
75584;SDS011;64162;53.508;10.476;2022-11-04T18:26:24;12.02;;;5.72;;
75584;SDS011;64162;53.508;10.476;2022-11-04T18:28:50;15.10;;;5.72;;
75584;SDS011;64162;53.508;10.476;2022-11-04T18:33:51;12.23;;;3.72;;
75584;SDS011;64162;53.508;10.476;2022-11-04T18:36:17;12.90;;;4.40;;
75584;SDS011;64162;53.508;10.476;2022-11-04T18:38:43;9.65;;;3.50;;
75584;SDS011;64162;53.508;10.476;2022-11-04T18:41:08;18.13;;;7.38;;
75584;SDS011;64162;53.508;10.476;2022-11-04T18:43:34;14.23;;;6.57;;
75584;SDS011;64162;53.508;10.476;2022-11-04T18:46:04;16.88;;;6.47;;
75584;SDS011;64162;53.508;10.476;2022-11-04T18:48:31;16.65;;;6.85;;
75584;SDS011;64162;53.508;10.476;2022-11-04T18:50:57;15.02;;;5.78;;
75584;SDS011;64162;53.508;10.476;2022-11-04T18:53:24;16.42;;;7.78;;
75584;SDS011;64162;53.508;10.476;2022-11-04T18:55:49;14.35;;;6.63;;
75584;SDS011;64162;53.508;10.476;2022-11-04T18:58:14;16.83;;;5.95;;
75584;SDS011;64162;53.508;10.476;2022-11-04T19:00:40;12.35;;;4.78;;
75584;SDS011;64162;53.508;10.476;2022-11-04T19:03:05;23.90;;;9.23;;
75584;SDS011;64162;53.508;10.476;2022-11-04T19:05:31;21.80;;;5.65;;
75584;SDS011;64162;53.508;10.476;2022-11-04T19:07:56;15.48;;;7.53;;
75584;SDS011;64162;53.508;10.476;2022-11-04T19:10:21;16.92;;;4.07;;
75584;SDS011;64162;53.508;10.476;2022-11-04T19:12:47;23.25;;;8.93;;
75584;SDS011;64162;53.508;10.476;2022-11-04T19:15:32;24.77;;;12.95;;
75584;SDS011;64162;53.508;10.476;2022-11-04T19:17:58;24.88;;;11.05;;
75584;SDS011;64162;53.508;10.476;2022-11-04T19:20:23;25.67;;;13.15;;
75584;SDS011;64162;53.508;10.476;2022-11-04T19:22:48;34.95;;;16.27;;
75584;SDS011;64162;53.508;10.476;2022-11-04T19:25:14;28.23;;;14.57;;
75584;SDS011;64162;53.508;10.476;2022-11-04T19:27:39;24.73;;;12.23;;
75584;SDS011;64162;53.508;10.476;2022-11-04T19:30:05;24.25;;;12.07;;
75584;SDS011;64162;53.508;10.476;2022-11-04T19:32:31;22.40;;;10.93;;
75584;SDS011;64162;53.508;10.476;2022-11-04T19:34:56;24.65;;;10.52;;
75584;SDS011;64162;53.508;10.476;2022-11-04T19:37:21;20.45;;;9.63;;
75584;SDS011;64162;53.508;10.476;2022-11-04T19:39:47;23.73;;;9.02;;
75584;SDS011;64162;53.508;10.476;2022-11-04T19:42:12;19.85;;;9.90;;
75584;SDS011;64162;53.508;10.476;2022-11-04T19:44:58;23.67;;;10.52;;
75584;SDS011;64162;53.508;10.476;2022-11-04T19:47:23;24.27;;;11.00;;
75584;SDS011;64162;53.508;10.476;2022-11-04T19:49:49;25.92;;;10.68;;
75584;SDS011;64162;53.508;10.476;2022-11-04T19:52:15;21.02;;;9.30;;
75584;SDS011;64162;53.508;10.476;2022-11-04T19:54:40;21.25;;;10.57;;
75584;SDS011;64162;53.508;10.476;2022-11-04T19:57:06;20.67;;;9.27;;
75584;SDS011;64162;53.508;10.476;2022-11-04T19:59:31;23.35;;;9.45;;